Enter the Airport ICAO Code

Search by Airport or City

Current Weather

KMCO | Orlando International Airport

Orlando, Florida, United States

Last Update 40 Minutes Ago

Mostly Cloudy Sky

Temperature of 13 ºC

Light to Moderate Winds from NorthEast

Temperature

13 ºC

Dew Point Temperature

01 ºC Below Zero

Relative Humidity

38.03 %

Wind Direction

NorthEast (030º, Without Significant Variations)

Wind Velocity

11 km/h (06 kt)

Gusts

None

Visibility

Greater than 10 Miles

Sea Level Pressure

30.25 inHg (Inches of Mercury)

Layers of Clouds

5% to 30% of Sky Covered from 305 mts (1000 ft) Above Ground Level.

30% to 60% of Sky Covered from 7010 mts (23000 ft) Above Ground Level.

60% to 90% of Sky Covered from 9144 mts (30000 ft) Above Ground Level.

METAR KMCO 022153Z 03006KT 10SM FEW010 SCT230 BKN300 13/M01 A3025 RMK AO2 SLP242 T01281006

Weather Forecast

KMCO | Orlando International Airport

Orlando, Florida, United States

Forecast valid for the next 25 Hours

From now on it is expected:

Mostly Cloudy Sky

Light to Moderate Winds from NorthEast

In 4 hours it is expected the begining of:

Partly Cloudy Sky

Light Winds from North

In 16 hours it is expected the begining of:

Light to Moderate Winds from East

Maximum Temperature

No Data

Minimum Temperature

No Data

TAF KMCO 022102Z 0221/0324 03007KT P6SM BKN180 FM030300 36004KT P6SM FEW035 SCT250 FM031500 08008KT P6SM SCT040 SCT250